Time;durP1;ratioP1;P1;durP2;ratioP2;P2;SDS_P1;SDS_P2;PMS_P1;PMS_P2;Temp;Humidity;BMP_temperature;BMP_pressure;BME280_temperature;BME280_humidity;BME280_pressure;Samples;Min_cycle;Max_cycle;Signal;HPM_P1;HPM_P2
2022/07/08 00:01:52;;;;;;;3.00;1.25;;;16.40;70.70;;;;;;5094397;28;20028;-65
2022/07/08 00:04:18;;;;;;;1.08;1.02;;;16.30;70.90;;;;;;5096322;28;20092;-66
2022/07/08 00:06:44;;;;;;;1.15;1.00;;;16.30;72.00;;;;;;5095036;28;20035;-65
2022/07/08 00:09:10;;;;;;;1.15;1.05;;;16.30;71.30;;;;;;5081771;28;20314;-65
2022/07/08 00:11:37;;;;;;;1.15;1.00;;;16.30;71.70;;;;;;5095885;28;20504;-65
2022/07/08 00:14:03;;;;;;;1.40;1.10;;;16.30;71.80;;;;;;5094468;28;20032;-65
2022/07/08 00:16:29;;;;;;;0.90;0.85;;;16.30;71.80;;;;;;5094365;28;20035;-65
2022/07/08 00:18:55;;;;;;;1.25;1.08;;;16.30;72.00;;;;;;5096026;28;20038;-64
2022/07/08 00:21:20;;;;;;;1.25;1.15;;;16.30;72.00;;;;;;5095222;28;20028;-65
2022/07/08 00:23:46;;;;;;;1.20;1.10;;;16.40;72.00;;;;;;5096157;28;20213;-64
2022/07/08 00:26:13;;;;;;;1.88;1.15;;;16.40;72.10;;;;;;5094455;28;20024;-65
2022/07/08 00:28:39;;;;;;;1.38;1.00;;;16.40;72.20;;;;;;5091595;28;20038;-65
2022/07/08 00:31:04;;;;;;;1.10;1.00;;;16.40;72.40;;;;;;5094895;28;20032;-62
2022/07/08 00:33:30;;;;;;;1.08;1.08;;;16.50;72.50;;;;;;5097013;28;20035;-65
2022/07/08 00:35:56;;;;;;;2.05;1.15;;;16.50;72.30;;;;;;5093990;28;20035;-65
2022/07/08 00:38:21;;;;;;;1.05;0.95;;;16.60;72.40;;;;;;5094516;28;20395;-65
2022/07/08 00:40:47;;;;;;;1.40;1.30;;;16.60;72.40;;;;;;5092996;28;20135;-65
2022/07/08 00:43:40;;;;;;;1.63;1.10;;;16.60;72.40;;;;;;5096811;28;20061;-64
2022/07/08 00:46:06;;;;;;;1.83;0.93;;;16.70;73.00;;;;;;5083499;28;20059;-64
2022/07/08 00:48:32;;;;;;;1.80;1.17;;;16.70;72.30;;;;;;5093586;28;20034;-64
2022/07/08 00:51:02;;;;;;;2.50;1.15;;;16.70;72.30;;;;;;5095472;28;20040;-65
2022/07/08 00:53:30;;;;;;;1.98;1.23;;;16.80;72.60;;;;;;5095398;28;20036;-65
2022/07/08 00:55:57;;;;;;;1.85;1.00;;;16.80;72.60;;;;;;5094501;28;20032;-65
2022/07/08 00:58:24;;;;;;;2.40;1.10;;;16.80;72.50;;;;;;5096039;28;20079;-65
2022/07/08 01:00:51;;;;;;;1.10;1.00;;;16.80;72.50;;;;;;5093486;28;20394;-65
2022/07/08 01:03:17;;;;;;;1.80;0.90;;;16.80;72.40;;;;;;5093924;28;20047;-65
2022/07/08 01:05:43;;;;;;;1.40;1.02;;;16.80;73.20;;;;;;5095227;28;20032;-65
2022/07/08 01:08:09;;;;;;;2.88;1.20;;;16.80;72.50;;;;;;5096071;28;20484;-64
2022/07/08 01:10:36;;;;;;;1.00;1.00;;;16.90;72.60;;;;;;5094700;28;20032;-66
2022/07/08 01:13:02;;;;;;;0.98;0.98;;;16.80;72.70;;;;;;5094852;28;20563;-65
2022/07/08 01:15:28;;;;;;;1.23;1.13;;;16.90;72.80;;;;;;5092643;28;20126;-65
2022/07/08 01:17:54;;;;;;;1.25;1.10;;;16.90;72.80;;;;;;5093377;28;20127;-64
2022/07/08 01:20:19;;;;;;;1.92;1.33;;;17.00;72.80;;;;;;5093574;28;20164;-65
2022/07/08 01:22:45;;;;;;;1.05;1.00;;;17.00;72.80;;;;;;5093512;28;20410;-66
2022/07/08 01:25:11;;;;;;;1.75;1.30;;;17.00;72.50;;;;;;5094345;28;20027;-64
2022/07/08 01:27:37;;;;;;;14.00;4.97;;;17.00;72.50;;;;;;5097809;28;20027;-66
2022/07/08 01:30:06;;;;;;;12.00;5.10;;;17.00;72.50;;;;;;5098132;27;20124;-64
2022/07/08 01:32:33;;;;;;;11.50;4.40;;;17.00;72.60;;;;;;5095149;28;20039;-65
2022/07/08 01:34:59;;;;;;;5.22;3.05;;;17.10;72.50;;;;;;5096930;28;20039;-66
2022/07/08 01:37:25;;;;;;;3.25;2.05;;;17.10;72.50;;;;;;5101076;28;20035;-65
2022/07/08 01:39:51;;;;;;;2.97;2.00;;;17.10;72.60;;;;;;5097967;28;20040;-65
2022/07/08 01:42:16;;;;;;;2.00;1.70;;;17.10;72.60;;;;;;5099548;28;20473;-65
2022/07/08 01:44:42;;;;;;;8.65;1.40;;;17.10;72.70;;;;;;5096015;28;21457;-66
2022/07/08 01:47:08;;;;;;;1.75;1.52;;;17.20;72.50;;;;;;5098411;28;20036;-65
2022/07/08 01:49:34;;;;;;;1.30;1.20;;;17.20;72.50;;;;;;5095534;28;20553;-66
2022/07/08 01:51:59;;;;;;;1.83;1.20;;;17.10;72.40;;;;;;5095500;28;21069;-65
2022/07/08 01:54:25;;;;;;;2.17;1.25;;;17.20;72.60;;;;;;5095938;28;20533;-64
2022/07/08 01:57:13;;;;;;;1.30;1.20;;;17.20;72.60;;;;;;5094924;27;20047;-65
2022/07/08 01:59:37;;;;;;;1.95;1.27;;;17.20;72.50;;;;;;5098924;28;20039;-66
2022/07/08 02:02:03;;;;;;;1.83;1.20;;;17.20;72.50;;;;;;5096638;28;20085;-65
2022/07/08 02:04:29;;;;;;;1.13;1.00;;;17.20;72.50;;;;;;5099072;28;20036;-65
2022/07/08 02:06:54;;;;;;;3.40;1.20;;;17.20;72.30;;;;;;5094389;28;20024;-65
2022/07/08 02:09:20;;;;;;;1.77;1.45;;;17.20;72.30;;;;;;5097911;28;20541;-65
2022/07/08 02:14:31;;;;;;;3.60;1.30;;;17.20;72.30;;;;;;5083625;28;20105;-64
2022/07/08 02:16:56;;;;;;;2.35;1.40;;;17.20;72.00;;;;;;5096185;28;20035;-65
2022/07/08 02:19:22;;;;;;;1.27;1.17;;;17.30;72.10;;;;;;5097774;28;20032;-65
2022/07/08 02:21:47;;;;;;;1.30;1.20;;;17.20;72.10;;;;;;5095924;28;20028;-66
2022/07/08 02:24:13;;;;;;;2.92;1.20;;;17.20;72.10;;;;;;5099160;28;20042;-64
2022/07/08 02:26:39;;;;;;;1.25;1.15;;;17.20;72.10;;;;;;5098656;28;20104;-64
2022/07/08 02:29:05;;;;;;;1.95;1.30;;;17.10;72.10;;;;;;5095995;28;20032;-64
2022/07/08 02:31:31;;;;;;;2.15;1.10;;;17.20;72.30;;;;;;5095720;28;20027;-64
2022/07/08 02:33:56;;;;;;;1.50;1.30;;;17.10;72.10;;;;;;5078053;28;20024;-66
2022/07/08 02:36:22;;;;;;;1.83;1.38;;;17.00;72.00;;;;;;5097478;28;20120;-65
2022/07/08 02:38:48;;;;;;;3.08;1.45;;;17.00;71.50;;;;;;5094500;28;20040;-66
2022/07/08 02:41:14;;;;;;;3.15;1.52;;;16.90;71.00;;;;;;5096328;28;20048;-64
2022/07/08 02:43:39;;;;;;;2.67;1.30;;;16.90;70.60;;;;;;5098220;28;20054;-64
2022/07/08 02:46:05;;;;;;;5.97;1.60;;;16.90;70.50;;;;;;5095196;28;20050;-64
2022/07/08 02:48:31;;;;;;;3.28;1.58;;;16.80;70.30;;;;;;5096521;28;20043;-65
2022/07/08 02:50:57;;;;;;;2.58;1.50;;;16.80;70.20;;;;;;5096353;28;20467;-65
2022/07/08 02:53:23;;;;;;;6.28;1.42;;;16.70;70.20;;;;;;5096305;28;20027;-64
2022/07/08 02:55:49;;;;;;;3.97;1.67;;;16.60;70.20;;;;;;5094218;28;20040;-65
2022/07/08 02:58:14;;;;;;;4.80;1.58;;;16.60;70.20;;;;;;5096831;28;20067;-64
2022/07/08 03:00:40;;;;;;;2.40;1.40;;;16.50;70.20;;;;;;5095798;27;20027;-64
2022/07/08 03:03:05;;;;;;;3.60;1.85;;;16.50;70.60;;;;;;5095588;28;20146;-65
2022/07/08 03:05:31;;;;;;;6.82;1.80;;;16.50;70.70;;;;;;5095444;27;20085;-65
2022/07/08 03:07:57;;;;;;;2.60;1.50;;;16.50;70.60;;;;;;5095925;28;20171;-66
2022/07/08 03:10:22;;;;;;;2.17;1.70;;;16.50;70.60;;;;;;5083065;28;20391;-65
2022/07/08 03:12:48;;;;;;;4.32;1.98;;;16.40;70.50;;;;;;5092876;28;20032;-65
2022/07/08 03:15:14;;;;;;;3.28;1.75;;;16.40;70.40;;;;;;5097049;28;20126;-65
2022/07/08 03:17:39;;;;;;;2.67;1.80;;;16.40;70.40;;;;;;5097993;28;20031;-65
2022/07/08 03:20:05;;;;;;;4.20;1.92;;;16.40;70.40;;;;;;5095477;28;20063;-65
2022/07/08 03:22:32;;;;;;;3.55;1.85;;;16.30;70.40;;;;;;5094330;28;20027;-64
2022/07/08 03:24:58;;;;;;;3.88;1.90;;;16.30;70.50;;;;;;5097966;28;20046;-66
2022/07/08 03:27:23;;;;;;;3.38;1.80;;;16.30;70.60;;;;;;5098858;28;20510;-64
2022/07/08 03:29:49;;;;;;;2.90;1.98;;;16.20;70.60;;;;;;5099474;28;20035;-65
2022/07/08 03:32:15;;;;;;;1.98;1.60;;;16.20;70.70;;;;;;5098253;28;20094;-64
2022/07/08 03:34:40;;;;;;;3.33;1.58;;;16.20;70.70;;;;;;5098803;28;20024;-66
2022/07/08 03:37:06;;;;;;;3.33;1.88;;;16.20;70.70;;;;;;5097730;28;20422;-65
2022/07/08 03:39:31;;;;;;;4.55;1.77;;;16.10;70.80;;;;;;5098444;28;20048;-65
2022/07/08 03:41:57;;;;;;;7.45;1.77;;;16.00;70.80;;;;;;5097623;28;20031;-64
2022/07/08 03:44:23;;;;;;;5.22;1.70;;;16.00;71.10;;;;;;5098733;28;20354;-65
2022/07/08 03:46:48;;;;;;;5.70;2.00;;;16.00;71.10;;;;;;5097449;28;20032;-64
2022/07/08 03:49:14;;;;;;;4.47;1.58;;;16.00;71.10;;;;;;5098009;28;20414;-65
2022/07/08 03:51:39;;;;;;;5.65;1.88;;;15.90;71.10;;;;;;5097135;28;20023;-64
2022/07/08 03:54:05;;;;;;;2.95;1.83;;;15.90;71.30;;;;;;5097088;28;20032;-65
2022/07/08 03:56:31;;;;;;;4.22;2.08;;;15.80;71.40;;;;;;5097819;28;20519;-64
2022/07/08 03:58:56;;;;;;;3.83;1.55;;;15.90;71.50;;;;;;5096956;28;20028;-65
2022/07/08 04:01:22;;;;;;;7.15;2.22;;;15.80;71.70;;;;;;5098886;28;20427;-65
2022/07/08 04:03:47;;;;;;;2.85;1.80;;;15.80;71.80;;;;;;5086288;28;20027;-65
2022/07/08 04:06:13;;;;;;;3.15;1.77;;;15.80;71.80;;;;;;5097791;28;20395;-64
2022/07/08 04:08:39;;;;;;;2.72;1.80;;;15.80;72.00;;;;;;5097793;28;20042;-64
2022/07/08 04:11:05;;;;;;;4.32;1.83;;;15.70;71.80;;;;;;5079100;28;20047;-64
2022/07/08 04:13:30;;;;;;;3.80;1.90;;;15.80;71.90;;;;;;5097801;28;20543;-64
2022/07/08 04:15:56;;;;;;;4.43;2.25;;;15.80;71.90;;;;;;5098698;28;20052;-64
2022/07/08 04:18:23;;;;;;;4.90;1.58;;;15.70;71.80;;;;;;5097636;28;20059;-65
2022/07/08 04:20:48;;;;;;;5.38;1.75;;;15.70;71.80;;;;;;5097596;28;20047;-65
2022/07/08 04:23:14;;;;;;;4.40;1.90;;;15.70;71.70;;;;;;5096825;28;20050;-65
2022/07/08 04:25:39;;;;;;;3.28;1.85;;;15.70;71.70;;;;;;5093684;28;20031;-65
2022/07/08 04:28:05;;;;;;;5.13;1.77;;;15.70;71.70;;;;;;5094553;28;20032;-65
2022/07/08 04:30:31;;;;;;;5.55;1.92;;;15.60;71.70;;;;;;5092099;28;20169;-66
2022/07/08 04:32:56;;;;;;;4.90;2.22;;;15.70;72.50;;;;;;5083443;28;20035;-65
2022/07/08 04:35:22;;;;;;;2.72;1.88;;;15.70;72.00;;;;;;5075813;28;20039;-66
2022/07/08 04:37:48;;;;;;;5.35;2.15;;;15.70;72.00;;;;;;5089052;28;20063;-66
2022/07/08 04:40:15;;;;;;;5.35;2.30;;;15.70;72.00;;;;;;5090117;28;20043;-66
2022/07/08 04:42:41;;;;;;;5.32;2.15;;;15.80;72.00;;;;;;5091320;28;20053;-64
2022/07/08 04:45:07;;;;;;;3.88;1.80;;;15.70;71.90;;;;;;5091420;28;20103;-64
2022/07/08 04:47:33;;;;;;;4.57;1.92;;;15.80;71.90;;;;;;5094800;28;20598;-64
2022/07/08 04:49:59;;;;;;;4.55;2.08;;;15.80;72.00;;;;;;5093722;28;20031;-65
2022/07/08 04:52:24;;;;;;;4.40;1.90;;;15.90;72.20;;;;;;5094054;28;20592;-65
2022/07/08 04:54:50;;;;;;;3.72;2.00;;;15.90;72.20;;;;;;5095733;28;20036;-65
2022/07/08 04:57:16;;;;;;;5.07;1.80;;;16.00;73.00;;;;;;5094467;28;20494;-65
2022/07/08 04:59:42;;;;;;;4.10;1.60;;;16.10;72.00;;;;;;5095814;28;20121;-65
2022/07/08 05:02:07;;;;;;;5.55;1.48;;;16.10;71.90;;;;;;5095533;28;20025;-65
2022/07/08 05:04:33;;;;;;;2.53;1.52;;;16.20;71.50;;;;;;5082466;28;20035;-65
2022/07/08 05:06:59;;;;;;;4.63;1.40;;;16.30;71.30;;;;;;5096142;28;20059;-64
2022/07/08 05:09:24;;;;;;;3.85;1.13;;;16.30;70.60;;;;;;5094450;28;20494;-66
2022/07/08 05:11:50;;;;;;;4.30;0.95;;;16.40;70.10;;;;;;5095762;28;20114;-65
2022/07/08 05:14:16;;;;;;;4.50;1.02;;;16.40;69.70;;;;;;5096108;28;20110;-65
2022/07/08 05:16:43;;;;;;;5.15;1.50;;;16.50;69.50;;;;;;5095164;28;20630;-65
2022/07/08 05:19:09;;;;;;;4.00;1.40;;;16.50;69.00;;;;;;5095162;28;20046;-64
2022/07/08 05:21:36;;;;;;;2.80;1.00;;;16.50;68.60;;;;;;5095414;28;20035;-64
2022/07/08 05:24:07;;;;;;;5.72;1.27;;;16.60;68.50;;;;;;5096327;28;20491;-65
2022/07/08 05:26:33;;;;;;;2.08;0.95;;;16.70;68.10;;;;;;5094428;28;20047;-65
2022/07/08 05:28:59;;;;;;;5.13;1.00;;;16.80;67.80;;;;;;5093713;28;20052;-63
2022/07/08 05:31:24;;;;;;;4.50;0.95;;;16.80;68.40;;;;;;5094480;28;20571;-65
2022/07/08 05:33:50;;;;;;;5.50;1.00;;;16.80;67.40;;;;;;5092534;28;20085;-64
2022/07/08 05:36:16;;;;;;;7.53;1.00;;;16.90;67.30;;;;;;5092106;28;20036;-65
2022/07/08 05:38:41;;;;;;;4.38;0.90;;;16.90;67.10;;;;;;5090681;28;20039;-64
2022/07/08 05:41:07;;;;;;;2.67;1.10;;;17.00;66.90;;;;;;5094554;28;20067;-64
2022/07/08 05:43:32;;;;;;;3.70;1.10;;;17.00;66.80;;;;;;5094515;28;20058;-65
2022/07/08 05:45:58;;;;;;;4.40;1.00;;;17.10;66.70;;;;;;5094422;28;20027;-65
2022/07/08 05:48:24;;;;;;;4.55;1.05;;;17.00;66.30;;;;;;5094668;28;20047;-66
2022/07/08 05:50:50;;;;;;;4.60;1.00;;;17.10;66.30;;;;;;5080875;28;20056;-64
2022/07/08 05:53:16;;;;;;;6.43;1.27;;;17.20;66.00;;;;;;5092270;28;21182;-64
2022/07/08 05:55:43;;;;;;;3.55;0.80;;;17.20;65.90;;;;;;5094902;28;20031;-64
2022/07/08 05:58:09;;;;;;;4.13;1.05;;;17.20;65.60;;;;;;5091782;28;20074;-64
2022/07/08 06:00:34;;;;;;;4.00;1.23;;;17.20;65.20;;;;;;5094409;28;20139;-64
2022/07/08 06:03:00;;;;;;;3.53;1.00;;;17.20;64.80;;;;;;5092624;28;20076;-65
2022/07/08 06:05:26;;;;;;;4.07;1.30;;;17.30;64.60;;;;;;5094629;28;20131;-64
2022/07/08 06:07:52;;;;;;;3.97;1.30;;;17.30;64.40;;;;;;5093598;28;20104;-65
2022/07/08 06:10:17;;;;;;;3.00;1.10;;;17.20;64.30;;;;;;5094658;28;20051;-64
2022/07/08 06:12:43;;;;;;;5.05;1.13;;;17.30;64.30;;;;;;5093968;28;20035;-65
2022/07/08 06:15:13;;;;;;;4.00;1.20;;;17.20;64.50;;;;;;5096294;28;20031;-65
2022/07/08 06:17:39;;;;;;;3.28;1.10;;;17.20;64.50;;;;;;5098213;28;20613;-64
2022/07/08 06:20:06;;;;;;;3.35;1.02;;;17.20;64.30;;;;;;5097198;28;20050;-65
2022/07/08 06:22:31;;;;;;;3.22;1.08;;;17.30;64.50;;;;;;5095967;28;20024;-65
2022/07/08 06:24:57;;;;;;;3.83;1.25;;;17.30;64.60;;;;;;5097588;28;20441;-65
2022/07/08 06:27:23;;;;;;;2.00;0.95;;;17.30;64.70;;;;;;5097566;28;20039;-64
2022/07/08 06:29:48;;;;;;;2.00;1.00;;;17.30;64.80;;;;;;5096940;28;20391;-64
2022/07/08 06:32:14;;;;;;;3.55;0.93;;;17.40;64.50;;;;;;5096803;28;20039;-63
2022/07/08 06:34:40;;;;;;;3.30;0.90;;;17.50;64.20;;;;;;5096511;28;20157;-65
2022/07/08 06:37:06;;;;;;;5.55;1.20;;;17.50;64.10;;;;;;5095632;28;20043;-65
2022/07/08 06:39:31;;;;;;;4.75;1.38;;;17.60;63.90;;;;;;5096444;28;20035;-66
2022/07/08 06:41:57;;;;;;;9.13;1.30;;;17.70;63.40;;;;;;5096815;28;20449;-64
2022/07/08 06:44:23;;;;;;;5.07;1.17;;;17.70;63.50;;;;;;5096168;28;20028;-66
2022/07/08 06:46:48;;;;;;;3.75;1.33;;;17.70;63.80;;;;;;5096014;28;20143;-65
2022/07/08 06:49:14;;;;;;;2.90;1.52;;;17.70;63.50;;;;;;5094973;28;20580;-64
2022/07/08 06:51:40;;;;;;;3.65;1.58;;;17.80;62.90;;;;;;5097714;28;20028;-65
2022/07/08 06:56:50;;;;;;;5.30;1.50;;;17.90;62.70;;;;;;5098811;28;20080;-65
2022/07/08 06:59:15;;;;;;;7.15;1.17;;;17.90;63.00;;;;;;5096979;28;20027;-66
2022/07/08 07:01:41;;;;;;;3.20;1.30;;;18.00;62.90;;;;;;5099398;28;20402;-65
2022/07/08 07:04:07;;;;;;;7.20;1.70;;;18.00;62.80;;;;;;5096730;28;20060;-66
2022/07/08 07:06:33;;;;;;;4.00;1.50;;;18.10;62.60;;;;;;5096319;28;20442;-66
2022/07/08 07:08:59;;;;;;;4.13;1.20;;;18.10;62.40;;;;;;5098773;28;20529;-65
2022/07/08 07:11:24;;;;;;;4.28;1.30;;;18.10;62.00;;;;;;5096848;28;20047;-64
2022/07/08 07:13:50;;;;;;;3.15;1.38;;;18.20;61.70;;;;;;5094098;28;20024;-65
2022/07/08 07:16:16;;;;;;;4.30;1.70;;;18.30;61.90;;;;;;5097694;28;20491;-66
2022/07/08 07:18:41;;;;;;;2.53;1.40;;;18.30;61.90;;;;;;5097500;28;20020;-64
2022/07/08 07:21:07;;;;;;;3.53;1.50;;;18.30;61.80;;;;;;5097448;28;20044;-65
2022/07/08 07:23:32;;;;;;;6.35;1.98;;;18.30;61.70;;;;;;5096908;28;20562;-65
2022/07/08 07:25:58;;;;;;;4.97;1.70;;;18.40;61.10;;;;;;5097518;28;20440;-63
2022/07/08 07:28:24;;;;;;;4.70;2.00;;;18.40;61.50;;;;;;5094835;28;20033;-64
2022/07/08 07:30:49;;;;;;;2.97;1.88;;;18.40;61.30;;;;;;5094899;28;20478;-65
2022/07/08 07:33:15;;;;;;;4.47;2.40;;;18.40;61.50;;;;;;5097698;28;20542;-65
2022/07/08 07:35:41;;;;;;;4.10;2.25;;;18.40;61.20;;;;;;5097792;28;20046;-64
2022/07/08 07:38:06;;;;;;;4.78;2.00;;;18.40;61.30;;;;;;5095158;28;20030;-64
2022/07/08 07:40:32;;;;;;;7.97;2.00;;;18.40;61.20;;;;;;5097543;28;20038;-64
2022/07/08 07:42:57;;;;;;;5.47;2.20;;;18.40;61.30;;;;;;5096876;28;20032;-65
2022/07/08 07:45:23;;;;;;;4.07;1.73;;;18.40;61.20;;;;;;5094334;28;20454;-65
2022/07/08 07:47:48;;;;;;;4.43;2.13;;;18.50;61.20;;;;;;5094752;27;20035;-65
2022/07/08 07:50:14;;;;;;;5.30;2.35;;;18.40;61.20;;;;;;5096770;28;20131;-65
2022/07/08 07:52:40;;;;;;;5.72;2.58;;;18.40;61.60;;;;;;5094339;28;20043;-64
2022/07/08 07:55:08;;;;;;;4.45;2.50;;;18.40;62.00;;;;;;5095811;28;20047;-65
2022/07/08 07:57:35;;;;;;;4.45;2.38;;;18.50;61.90;;;;;;5097421;28;20544;-64
2022/07/08 08:00:01;;;;;;;4.05;2.50;;;18.50;61.90;;;;;;5096156;28;20045;-64
2022/07/08 08:02:26;;;;;;;6.18;2.40;;;18.60;62.00;;;;;;5089608;28;20032;-63
2022/07/08 08:04:52;;;;;;;5.88;2.67;;;18.60;62.00;;;;;;5096817;28;20525;-64
2022/07/08 08:07:17;;;;;;;4.35;2.30;;;18.70;61.20;;;;;;5096281;28;20042;-65
2022/07/08 08:09:43;;;;;;;7.90;2.90;;;18.80;60.80;;;;;;5096923;28;20038;-64
2022/07/08 08:12:09;;;;;;;6.32;2.60;;;18.90;61.20;;;;;;5094321;28;20067;-65
2022/07/08 08:14:34;;;;;;;5.70;2.90;;;18.90;60.30;;;;;;5096496;28;20036;-65
2022/07/08 08:17:00;;;;;;;6.15;2.90;;;19.00;60.10;;;;;;5095117;28;20038;-66
2022/07/08 08:19:25;;;;;;;9.23;2.60;;;19.00;60.00;;;;;;5095954;28;20093;-65
2022/07/08 08:21:52;;;;;;;6.88;3.30;;;19.00;60.30;;;;;;5097099;28;20138;-63
2022/07/08 08:24:18;;;;;;;5.32;2.45;;;19.10;60.00;;;;;;5096776;28;20484;-65
2022/07/08 08:26:44;;;;;;;5.30;2.80;;;19.20;60.20;;;;;;5096993;28;20040;-65
2022/07/08 08:29:09;;;;;;;3.90;2.63;;;19.20;59.40;;;;;;5096450;28;20023;-64
2022/07/08 08:31:35;;;;;;;5.13;2.83;;;19.30;59.80;;;;;;5096712;28;20544;-65
2022/07/08 08:34:01;;;;;;;4.15;2.80;;;19.30;59.60;;;;;;5097294;28;20092;-64
2022/07/08 08:36:27;;;;;;;5.20;2.60;;;19.40;59.70;;;;;;5092218;28;20039;-65
2022/07/08 08:38:53;;;;;;;6.57;2.47;;;19.50;59.60;;;;;;5096081;28;20043;-64
2022/07/08 08:41:20;;;;;;;5.25;2.60;;;19.50;59.50;;;;;;5095958;28;20042;-66
2022/07/08 08:43:45;;;;;;;6.13;2.50;;;19.60;59.70;;;;;;5096435;28;20095;-65
2022/07/08 08:46:11;;;;;;;4.68;2.65;;;19.70;59.00;;;;;;5095528;28;20051;-65
2022/07/08 08:48:39;;;;;;;6.57;2.80;;;19.70;59.00;;;;;;5097271;28;20461;-65
2022/07/08 08:51:09;;;;;;;4.00;2.50;;;19.70;59.00;;;;;;5097354;28;20036;-65
2022/07/08 08:53:40;;;;;;;4.13;2.20;;;19.80;59.40;;;;;;5095127;28;20047;-64
2022/07/08 08:56:10;;;;;;;7.57;2.28;;;19.80;58.80;;;;;;5094427;28;20039;-62
2022/07/08 08:58:41;;;;;;;4.05;1.98;;;19.90;57.80;;;;;;5095112;28;21186;-65
2022/07/08 09:01:07;;;;;;;3.90;1.80;;;19.90;58.00;;;;;;5095689;28;20044;-64
2022/07/08 09:03:34;;;;;;;3.08;2.20;;;20.00;57.70;;;;;;5095735;28;20045;-65
2022/07/08 09:05:59;;;;;;;4.38;2.05;;;20.10;57.90;;;;;;5097121;28;20038;-67
2022/07/08 09:08:25;;;;;;;5.55;2.10;;;20.10;58.10;;;;;;5096101;28;20028;-65
2022/07/08 09:10:50;;;;;;;3.25;2.15;;;20.20;57.60;;;;;;5093212;28;20040;-65
2022/07/08 09:13:16;;;;;;;4.03;1.70;;;20.20;56.80;;;;;;5096453;28;20032;-65
2022/07/08 09:15:43;;;;;;;3.85;1.85;;;20.20;57.50;;;;;;5096577;28;20538;-64
2022/07/08 09:18:11;;;;;;;7.57;1.90;;;20.20;58.30;;;;;;5094277;28;20059;-64
2022/07/08 09:20:56;;;;;;;4.10;1.83;;;20.20;57.50;;;;;;5101065;28;20031;-65
2022/07/08 09:23:29;;;;;;;3.63;1.38;;;20.30;56.50;;;;;;5096537;28;20511;-65
2022/07/08 09:26:06;;;;;;;4.57;1.60;;;20.40;56.10;;;;;;5096642;28;20031;-66
2022/07/08 09:28:43;;;;;;;3.67;1.50;;;20.50;56.20;;;;;;5097003;28;20032;-65
2022/07/08 09:31:13;;;;;;;3.70;1.80;;;20.50;56.80;;;;;;5097017;28;20035;-64
2022/07/08 09:33:40;;;;;;;2.97;1.50;;;20.60;56.90;;;;;;5096995;28;20028;-65
2022/07/08 09:36:08;;;;;;;4.72;1.83;;;20.70;56.20;;;;;;5096206;28;20038;-65
2022/07/08 09:38:38;;;;;;;7.22;1.80;;;20.70;56.10;;;;;;5096503;28;20059;-65
2022/07/08 09:41:15;;;;;;;3.58;1.60;;;20.70;55.80;;;;;;5098878;28;20044;-65
2022/07/08 09:43:49;;;;;;;2.92;1.20;;;20.80;55.50;;;;;;5096539;28;20680;-66
2022/07/08 09:46:15;;;;;;;3.30;1.20;;;20.80;54.70;;;;;;5096132;28;20467;-65
2022/07/08 09:48:41;;;;;;;1.77;1.10;;;20.90;55.10;;;;;;5098929;28;20690;-65
2022/07/08 09:51:08;;;;;;;3.28;1.20;;;20.90;54.40;;;;;;5094717;28;20036;-63
2022/07/08 09:53:35;;;;;;;2.95;1.25;;;21.00;55.10;;;;;;5098484;28;20040;-65
2022/07/08 09:56:01;;;;;;;4.18;1.23;;;21.00;54.80;;;;;;5098133;28;20567;-63
2022/07/08 09:58:29;;;;;;;3.90;1.20;;;21.20;54.00;;;;;;5098827;28;20067;-65
2022/07/08 10:00:57;;;;;;;2.90;1.15;;;21.20;54.00;;;;;;5099551;27;20044;-65
2022/07/08 10:03:24;;;;;;;4.75;1.13;;;21.30;53.90;;;;;;5100110;28;20040;-65
2022/07/08 10:05:50;;;;;;;2.58;1.40;;;21.30;53.60;;;;;;5100569;27;20504;-65
2022/07/08 10:08:17;;;;;;;2.88;1.38;;;21.30;53.50;;;;;;5100607;28;20032;-65
2022/07/08 10:10:45;;;;;;;5.50;1.20;;;21.20;52.70;;;;;;5084567;28;20028;-65
2022/07/08 10:13:11;;;;;;;6.35;1.40;;;21.20;52.70;;;;;;5097054;28;20511;-66
2022/07/08 10:15:38;;;;;;;3.30;1.13;;;21.10;52.10;;;;;;5098955;28;20035;-64
2022/07/08 10:18:22;;;;;;;5.63;1.17;;;21.00;52.90;;;;;;5097336;28;20031;-64
2022/07/08 10:20:52;;;;;;;3.97;1.15;;;21.00;52.60;;;;;;5096261;28;20092;-65
2022/07/08 10:23:40;;;;;;;2.58;1.10;;;21.00;53.10;;;;;;5096639;28;20040;-64
2022/07/08 10:26:07;;;;;;;1.15;1.05;;;21.00;52.20;;;;;;5079213;28;20032;-64
2022/07/08 10:28:37;;;;;;;4.40;1.35;;;21.00;53.60;;;;;;5097300;28;20076;-64
2022/07/08 10:31:17;;;;;;;4.65;1.10;;;21.10;52.30;;;;;;5098887;28;20611;-65
2022/07/08 10:33:45;;;;;;;3.05;1.10;;;21.10;52.00;;;;;;5096881;28;20076;-65
2022/07/08 10:36:11;;;;;;;2.60;1.05;;;21.10;51.90;;;;;;5096789;28;20043;-65
2022/07/08 10:38:41;;;;;;;2.40;0.93;;;21.10;52.00;;;;;;5094417;28;20039;-65
2022/07/08 10:41:11;;;;;;;1.50;0.90;;;21.10;52.10;;;;;;5096196;27;20032;-65
2022/07/08 10:43:38;;;;;;;1.67;0.93;;;21.10;53.00;;;;;;5098050;28;20042;-65
2022/07/08 10:46:03;;;;;;;2.75;1.20;;;21.20;52.50;;;;;;5099131;27;20745;-65
2022/07/08 10:48:45;;;;;;;2.90;0.90;;;21.20;51.10;;;;;;5097181;28;20043;-65
2022/07/08 10:51:29;;;;;;;3.03;1.33;;;21.30;50.40;;;;;;5099897;28;20043;-64
2022/07/08 10:53:59;;;;;;;2.05;0.80;;;21.30;51.00;;;;;;5101101;28;20043;-66
2022/07/08 10:56:50;;;;;;;3.75;1.38;;;21.30;51.80;;;;;;5096275;28;20035;-66
2022/07/08 10:59:26;;;;;;;2.95;1.00;;;21.40;51.60;;;;;;5099221;28;20417;-65
2022/07/08 11:02:16;;;;;;;3.08;1.17;;;21.50;51.90;;;;;;5097824;28;20446;-66
2022/07/08 11:04:43;;;;;;;2.75;1.17;;;21.70;50.60;;;;;;5096800;27;20526;-64
2022/07/08 11:07:20;;;;;;;2.78;1.08;;;21.80;51.90;;;;;;5096520;28;20032;-66
2022/07/08 11:09:48;;;;;;;2.72;1.00;;;22.00;50.10;;;;;;5099456;28;20506;-66
2022/07/08 11:12:24;;;;;;;2.63;1.10;;;22.10;51.60;;;;;;5079588;28;20039;-66
2022/07/08 11:14:58;;;;;;;2.17;1.15;;;22.20;49.90;;;;;;5097872;28;20032;-67
2022/07/08 11:17:29;;;;;;;2.80;1.40;;;22.20;49.60;;;;;;5097500;28;20111;-65
2022/07/08 11:19:57;;;;;;;3.22;1.38;;;22.20;48.40;;;;;;5100055;28;20036;-64
2022/07/08 11:22:23;;;;;;;2.47;0.90;;;22.20;48.70;;;;;;5099065;28;20468;-66
2022/07/08 11:24:50;;;;;;;3.70;1.10;;;22.10;48.80;;;;;;5097793;27;20038;-65
2022/07/08 11:27:16;;;;;;;2.80;1.25;;;22.10;48.80;;;;;;5096802;28;20039;-66
2022/07/08 11:29:52;;;;;;;3.15;0.93;;;22.00;48.50;;;;;;5099725;27;20036;-65
2022/07/08 11:32:19;;;;;;;1.52;0.90;;;22.00;47.20;;;;;;5099476;28;20028;-64
2022/07/08 11:34:46;;;;;;;2.65;0.82;;;22.00;48.60;;;;;;5099802;28;20061;-65
2022/07/08 11:37:13;;;;;;;2.33;1.10;;;22.00;49.40;;;;;;5097067;28;20042;-65
2022/07/08 11:39:39;;;;;;;4.38;1.10;;;22.00;49.80;;;;;;5098895;28;20050;-65
2022/07/08 11:42:05;;;;;;;3.50;1.30;;;22.10;49.30;;;;;;5098980;28;20119;-65
2022/07/08 11:44:31;;;;;;;4.90;1.00;;;22.20;49.40;;;;;;5094946;28;20533;-65
2022/07/08 11:46:57;;;;;;;3.50;0.98;;;22.20;48.90;;;;;;5096876;28;20031;-65
2022/07/08 11:49:23;;;;;;;4.18;1.23;;;22.20;48.30;;;;;;5097347;28;20042;-65
2022/07/08 11:51:54;;;;;;;1.83;0.82;;;22.20;48.30;;;;;;5096213;28;20028;-66
2022/07/08 11:54:25;;;;;;;5.18;1.35;;;22.20;48.70;;;;;;5096762;28;20024;-66
2022/07/08 11:56:58;;;;;;;2.53;0.90;;;22.20;48.90;;;;;;5095674;28;20373;-66
2022/07/08 11:59:29;;;;;;;2.20;1.20;;;22.30;48.90;;;;;;5095637;28;20135;-66
2022/07/08 12:01:58;;;;;;;2.63;0.90;;;22.40;49.00;;;;;;5095769;28;20036;-66
2022/07/08 12:04:25;;;;;;;2.00;0.77;;;22.50;49.40;;;;;;5097475;28;20062;-66
2022/07/08 12:07:01;;;;;;;1.65;0.70;;;22.60;49.10;;;;;;5096026;28;20027;-66
2022/07/08 12:09:28;;;;;;;5.68;0.90;;;22.70;48.00;;;;;;5097486;28;20359;-66
2022/07/08 12:11:57;;;;;;;2.55;0.80;;;22.80;47.90;;;;;;5094670;28;20597;-65
2022/07/08 12:14:23;;;;;;;2.45;0.90;;;22.90;47.20;;;;;;5097596;28;20031;-65
2022/07/08 12:16:51;;;;;;;1.85;0.77;;;23.00;47.20;;;;;;5096434;28;20560;-65
2022/07/08 12:19:30;;;;;;;6.10;1.05;;;23.10;47.30;;;;;;5096887;28;20028;-66
2022/07/08 12:21:59;;;;;;;2.60;1.00;;;23.20;45.40;;;;;;5098236;28;20035;-65
2022/07/08 12:24:27;;;;;;;2.60;0.80;;;23.20;46.00;;;;;;5096095;28;20058;-66
2022/07/08 12:26:57;;;;;;;3.17;0.90;;;23.20;46.70;;;;;;5095018;28;20527;-65
2022/07/08 12:29:25;;;;;;;3.55;1.15;;;23.30;46.50;;;;;;5098829;28;20032;-65
2022/07/08 12:31:50;;;;;;;3.10;0.82;;;23.30;47.10;;;;;;5095933;28;20033;-65
2022/07/08 12:34:18;;;;;;;2.38;0.90;;;23.30;46.70;;;;;;5097028;28;20035;-64
2022/07/08 12:36:45;;;;;;;3.90;0.98;;;23.40;46.80;;;;;;5095902;28;20339;-66
2022/07/08 12:39:22;;;;;;;2.67;0.82;;;23.50;46.80;;;;;;5096013;28;20055;-66
2022/07/08 12:42:00;;;;;;;1.85;0.90;;;23.50;46.70;;;;;;5097447;28;20075;-66
2022/07/08 12:44:28;;;;;;;2.33;1.05;;;23.50;46.00;;;;;;5099461;28;20113;-65
2022/07/08 12:46:54;;;;;;;2.10;1.00;;;23.50;46.00;;;;;;5098368;28;20028;-65
2022/07/08 12:49:28;;;;;;;1.83;0.95;;;23.50;46.00;;;;;;5097068;28;20089;-66
2022/07/08 12:51:54;;;;;;;2.22;0.93;;;23.50;45.80;;;;;;5096489;28;20447;-65